sensor_id;sensor_type;location;lat;lon;timestamp;P1;durP1;ratioP1;P2;durP2;ratioP2
32788;SDS011;19141;48.980;8.410;2023-06-22T04:22:32;7.97;;;5.13;;
32788;SDS011;19141;48.980;8.410;2023-06-22T04:24:58;9.82;;;5.50;;
32788;SDS011;19141;48.980;8.410;2023-06-22T04:27:23;10.98;;;5.00;;
32788;SDS011;19141;48.980;8.410;2023-06-22T04:29:48;9.95;;;5.43;;
32788;SDS011;19141;48.980;8.410;2023-06-22T04:32:15;9.13;;;5.03;;
32788;SDS011;19141;48.980;8.410;2023-06-22T04:34:40;8.57;;;5.50;;
32788;SDS011;19141;48.980;8.410;2023-06-22T04:37:06;7.35;;;5.18;;
32788;SDS011;19141;48.980;8.410;2023-06-22T04:39:31;7.55;;;4.50;;
32788;SDS011;19141;48.980;8.410;2023-06-22T04:41:56;8.90;;;4.65;;
32788;SDS011;19141;48.980;8.410;2023-06-22T04:44:25;11.43;;;5.70;;
32788;SDS011;19141;48.980;8.410;2023-06-22T04:46:51;9.93;;;5.85;;
32788;SDS011;19141;48.980;8.410;2023-06-22T04:49:29;8.15;;;5.18;;
32788;SDS011;19141;48.980;8.410;2023-06-22T04:51:58;11.63;;;6.20;;
32788;SDS011;19141;48.980;8.410;2023-06-22T04:54:24;9.20;;;5.47;;
32788;SDS011;19141;48.980;8.410;2023-06-22T04:56:50;8.75;;;4.70;;
32788;SDS011;19141;48.980;8.410;2023-06-22T04:59:21;8.07;;;4.63;;
32788;SDS011;19141;48.980;8.410;2023-06-22T05:02:00;7.00;;;5.13;;
32788;SDS011;19141;48.980;8.410;2023-06-22T05:04:27;8.23;;;5.18;;
32788;SDS011;19141;48.980;8.410;2023-06-22T05:06:56;7.50;;;4.70;;
32788;SDS011;19141;48.980;8.410;2023-06-22T05:09:22;7.65;;;4.70;;
32788;SDS011;19141;48.980;8.410;2023-06-22T05:11:47;8.23;;;4.80;;
32788;SDS011;19141;48.980;8.410;2023-06-22T05:14:13;8.10;;;4.55;;
32788;SDS011;19141;48.980;8.410;2023-06-22T05:16:40;7.75;;;5.00;;
32788;SDS011;19141;48.980;8.410;2023-06-22T05:19:07;7.00;;;4.68;;
32788;SDS011;19141;48.980;8.410;2023-06-22T05:21:32;7.63;;;5.35;;
32788;SDS011;19141;48.980;8.410;2023-06-22T05:23:58;8.40;;;4.32;;
32788;SDS011;19141;48.980;8.410;2023-06-22T05:26:28;8.23;;;4.90;;
32788;SDS011;19141;48.980;8.410;2023-06-22T05:28:55;8.73;;;4.95;;
32788;SDS011;19141;48.980;8.410;2023-06-22T05:31:21;11.23;;;5.32;;
32788;SDS011;19141;48.980;8.410;2023-06-22T05:33:47;10.85;;;4.70;;
32788;SDS011;19141;48.980;8.410;2023-06-22T05:36:13;8.18;;;4.70;;
32788;SDS011;19141;48.980;8.410;2023-06-22T05:38:39;10.95;;;5.63;;
32788;SDS011;19141;48.980;8.410;2023-06-22T05:41:05;8.52;;;4.88;;
32788;SDS011;19141;48.980;8.410;2023-06-22T05:43:31;7.45;;;4.85;;
32788;SDS011;19141;48.980;8.410;2023-06-22T05:45:57;6.47;;;4.50;;
32788;SDS011;19141;48.980;8.410;2023-06-22T05:48:23;7.35;;;4.57;;
32788;SDS011;19141;48.980;8.410;2023-06-22T05:50:49;7.32;;;4.75;;
32788;SDS011;19141;48.980;8.410;2023-06-22T05:53:15;7.28;;;4.70;;
32788;SDS011;19141;48.980;8.410;2023-06-22T05:55:40;7.22;;;4.53;;
32788;SDS011;19141;48.980;8.410;2023-06-22T05:58:06;6.93;;;4.60;;
32788;SDS011;19141;48.980;8.410;2023-06-22T06:00:31;6.95;;;4.55;;
32788;SDS011;19141;48.980;8.410;2023-06-22T06:02:57;10.50;;;5.15;;
32788;SDS011;19141;48.980;8.410;2023-06-22T06:05:31;9.23;;;4.85;;
32788;SDS011;19141;48.980;8.410;2023-06-22T06:08:00;7.38;;;4.88;;
32788;SDS011;19141;48.980;8.410;2023-06-22T06:10:26;10.05;;;5.32;;
32788;SDS011;19141;48.980;8.410;2023-06-22T06:12:52;6.60;;;4.28;;
32788;SDS011;19141;48.980;8.410;2023-06-22T06:15:18;6.72;;;4.20;;
32788;SDS011;19141;48.980;8.410;2023-06-22T06:17:47;7.93;;;4.63;;
32788;SDS011;19141;48.980;8.410;2023-06-22T06:20:12;7.72;;;4.70;;
32788;SDS011;19141;48.980;8.410;2023-06-22T06:22:38;7.30;;;4.75;;
32788;SDS011;19141;48.980;8.410;2023-06-22T06:25:04;5.63;;;4.47;;
32788;SDS011;19141;48.980;8.410;2023-06-22T06:27:30;9.65;;;4.88;;
32788;SDS011;19141;48.980;8.410;2023-06-22T06:29:56;5.72;;;4.18;;
32788;SDS011;19141;48.980;8.410;2023-06-22T06:32:21;7.13;;;5.03;;
32788;SDS011;19141;48.980;8.410;2023-06-22T06:34:47;6.63;;;4.88;;
32788;SDS011;19141;48.980;8.410;2023-06-22T06:37:16;7.68;;;4.55;;
32788;SDS011;19141;48.980;8.410;2023-06-22T06:39:42;6.33;;;4.67;;
32788;SDS011;19141;48.980;8.410;2023-06-22T06:42:07;6.80;;;4.82;;
32788;SDS011;19141;48.980;8.410;2023-06-22T06:44:33;7.53;;;4.00;;
32788;SDS011;19141;48.980;8.410;2023-06-22T06:47:00;8.77;;;5.53;;
32788;SDS011;19141;48.980;8.410;2023-06-22T06:49:25;5.95;;;4.13;;
32788;SDS011;19141;48.980;8.410;2023-06-22T06:51:50;6.03;;;4.22;;
32788;SDS011;19141;48.980;8.410;2023-06-22T06:54:16;8.00;;;4.57;;
32788;SDS011;19141;48.980;8.410;2023-06-22T06:56:41;7.68;;;4.80;;
32788;SDS011;19141;48.980;8.410;2023-06-22T06:59:09;6.90;;;4.45;;
32788;SDS011;19141;48.980;8.410;2023-06-22T07:01:35;5.85;;;4.20;;
32788;SDS011;19141;48.980;8.410;2023-06-22T07:04:01;8.02;;;4.13;;
32788;SDS011;19141;48.980;8.410;2023-06-22T07:06:26;7.78;;;4.38;;
32788;SDS011;19141;48.980;8.410;2023-06-22T07:08:54;9.15;;;4.03;;
32788;SDS011;19141;48.980;8.410;2023-06-22T07:11:20;6.32;;;4.72;;
32788;SDS011;19141;48.980;8.410;2023-06-22T07:13:45;6.90;;;4.28;;
32788;SDS011;19141;48.980;8.410;2023-06-22T07:16:11;5.93;;;4.00;;
32788;SDS011;19141;48.980;8.410;2023-06-22T07:18:36;5.50;;;3.30;;
32788;SDS011;19141;48.980;8.410;2023-06-22T07:21:02;6.32;;;4.30;;
32788;SDS011;19141;48.980;8.410;2023-06-22T07:23:31;7.13;;;4.15;;
32788;SDS011;19141;48.980;8.410;2023-06-22T07:25:56;6.85;;;3.80;;
32788;SDS011;19141;48.980;8.410;2023-06-22T07:28:22;7.90;;;4.25;;
32788;SDS011;19141;48.980;8.410;2023-06-22T07:30:47;9.55;;;4.50;;
32788;SDS011;19141;48.980;8.410;2023-06-22T07:33:13;9.55;;;4.10;;
32788;SDS011;19141;48.980;8.410;2023-06-22T07:35:38;5.85;;;4.18;;
32788;SDS011;19141;48.980;8.410;2023-06-22T07:38:04;7.30;;;3.88;;
32788;SDS011;19141;48.980;8.410;2023-06-22T07:40:29;5.95;;;3.40;;
32788;SDS011;19141;48.980;8.410;2023-06-22T07:42:54;5.57;;;3.47;;
32788;SDS011;19141;48.980;8.410;2023-06-22T07:45:20;6.32;;;3.45;;
32788;SDS011;19141;48.980;8.410;2023-06-22T07:47:45;4.63;;;3.15;;
32788;SDS011;19141;48.980;8.410;2023-06-22T07:50:11;5.60;;;3.15;;
32788;SDS011;19141;48.980;8.410;2023-06-22T07:52:36;5.72;;;3.47;;
32788;SDS011;19141;48.980;8.410;2023-06-22T07:55:02;6.03;;;3.70;;
32788;SDS011;19141;48.980;8.410;2023-06-22T07:57:28;6.60;;;3.20;;
32788;SDS011;19141;48.980;8.410;2023-06-22T07:59:59;6.10;;;3.28;;
32788;SDS011;19141;48.980;8.410;2023-06-22T08:02:25;4.18;;;3.17;;
32788;SDS011;19141;48.980;8.410;2023-06-22T08:04:51;4.50;;;3.03;;
32788;SDS011;19141;48.980;8.410;2023-06-22T08:07:17;7.40;;;3.75;;
32788;SDS011;19141;48.980;8.410;2023-06-22T08:09:48;5.50;;;3.20;;
32788;SDS011;19141;48.980;8.410;2023-06-22T08:12:14;5.30;;;3.60;;
32788;SDS011;19141;48.980;8.410;2023-06-22T08:14:41;5.20;;;3.13;;
32788;SDS011;19141;48.980;8.410;2023-06-22T08:17:08;4.65;;;3.22;;
32788;SDS011;19141;48.980;8.410;2023-06-22T08:19:33;4.18;;;3.20;;
32788;SDS011;19141;48.980;8.410;2023-06-22T08:21:59;3.97;;;2.97;;
32788;SDS011;19141;48.980;8.410;2023-06-22T08:24:25;6.22;;;3.50;;
32788;SDS011;19141;48.980;8.410;2023-06-22T08:26:51;5.22;;;2.90;;
32788;SDS011;19141;48.980;8.410;2023-06-22T08:29:16;4.68;;;3.10;;
32788;SDS011;19141;48.980;8.410;2023-06-22T08:31:42;5.10;;;3.05;;
32788;SDS011;19141;48.980;8.410;2023-06-22T08:34:07;4.10;;;2.80;;
32788;SDS011;19141;48.980;8.410;2023-06-22T08:36:33;4.50;;;3.20;;
32788;SDS011;19141;48.980;8.410;2023-06-22T08:41:28;4.50;;;3.35;;
32788;SDS011;19141;48.980;8.410;2023-06-22T08:43:54;5.63;;;3.33;;
32788;SDS011;19141;48.980;8.410;2023-06-22T08:46:19;5.60;;;3.28;;
32788;SDS011;19141;48.980;8.410;2023-06-22T08:48:48;4.22;;;2.97;;
32788;SDS011;19141;48.980;8.410;2023-06-22T08:51:14;5.97;;;3.45;;
32788;SDS011;19141;48.980;8.410;2023-06-22T08:53:39;4.05;;;3.10;;
32788;SDS011;19141;48.980;8.410;2023-06-22T08:56:04;5.68;;;2.92;;
32788;SDS011;19141;48.980;8.410;2023-06-22T08:58:30;4.88;;;3.10;;
32788;SDS011;19141;48.980;8.410;2023-06-22T09:00:55;4.75;;;3.22;;
32788;SDS011;19141;48.980;8.410;2023-06-22T09:03:21;4.30;;;2.83;;
32788;SDS011;19141;48.980;8.410;2023-06-22T09:05:46;4.82;;;3.03;;
32788;SDS011;19141;48.980;8.410;2023-06-22T09:08:11;4.72;;;3.03;;
32788;SDS011;19141;48.980;8.410;2023-06-22T09:10:37;5.05;;;2.83;;
32788;SDS011;19141;48.980;8.410;2023-06-22T09:13:02;5.53;;;3.35;;
32788;SDS011;19141;48.980;8.410;2023-06-22T09:15:28;3.75;;;2.95;;
32788;SDS011;19141;48.980;8.410;2023-06-22T09:17:53;4.70;;;3.05;;
32788;SDS011;19141;48.980;8.410;2023-06-22T09:20:19;7.75;;;3.00;;
32788;SDS011;19141;48.980;8.410;2023-06-22T09:22:45;3.95;;;2.85;;
32788;SDS011;19141;48.980;8.410;2023-06-22T09:25:11;5.72;;;3.75;;
32788;SDS011;19141;48.980;8.410;2023-06-22T09:27:37;6.28;;;3.33;;
32788;SDS011;19141;48.980;8.410;2023-06-22T09:30:03;5.15;;;3.13;;
32788;SDS011;19141;48.980;8.410;2023-06-22T09:32:29;5.80;;;3.47;;
32788;SDS011;19141;48.980;8.410;2023-06-22T09:34:54;4.20;;;2.65;;
32788;SDS011;19141;48.980;8.410;2023-06-22T09:37:20;5.40;;;3.53;;
32788;SDS011;19141;48.980;8.410;2023-06-22T09:39:45;4.28;;;3.10;;
32788;SDS011;19141;48.980;8.410;2023-06-22T09:42:10;4.53;;;3.08;;
32788;SDS011;19141;48.980;8.410;2023-06-22T09:44:36;3.50;;;2.67;;
32788;SDS011;19141;48.980;8.410;2023-06-22T09:47:02;6.35;;;3.25;;
32788;SDS011;19141;48.980;8.410;2023-06-22T09:49:27;5.13;;;2.70;;
32788;SDS011;19141;48.980;8.410;2023-06-22T09:51:52;3.78;;;2.83;;
32788;SDS011;19141;48.980;8.410;2023-06-22T09:54:18;6.07;;;2.97;;
32788;SDS011;19141;48.980;8.410;2023-06-22T09:56:43;5.22;;;2.80;;
32788;SDS011;19141;48.980;8.410;2023-06-22T09:59:09;4.28;;;2.65;;
32788;SDS011;19141;48.980;8.410;2023-06-22T10:01:34;3.92;;;2.85;;
32788;SDS011;19141;48.980;8.410;2023-06-22T10:04:00;5.35;;;2.90;;
32788;SDS011;19141;48.980;8.410;2023-06-22T10:06:26;5.25;;;2.88;;
32788;SDS011;19141;48.980;8.410;2023-06-22T10:08:52;4.63;;;3.03;;
32788;SDS011;19141;48.980;8.410;2023-06-22T10:11:17;5.53;;;3.08;;
32788;SDS011;19141;48.980;8.410;2023-06-22T10:13:42;5.88;;;2.88;;
32788;SDS011;19141;48.980;8.410;2023-06-22T10:16:08;4.70;;;3.00;;
32788;SDS011;19141;48.980;8.410;2023-06-22T10:18:33;4.88;;;2.58;;
32788;SDS011;19141;48.980;8.410;2023-06-22T10:20:59;7.47;;;3.05;;
32788;SDS011;19141;48.980;8.410;2023-06-22T10:23:25;5.60;;;2.75;;
32788;SDS011;19141;48.980;8.410;2023-06-22T10:25:50;4.60;;;3.13;;
32788;SDS011;19141;48.980;8.410;2023-06-22T10:28:16;4.03;;;2.88;;
32788;SDS011;19141;48.980;8.410;2023-06-22T10:30:41;4.60;;;3.10;;
32788;SDS011;19141;48.980;8.410;2023-06-22T10:33:07;5.07;;;2.70;;
32788;SDS011;19141;48.980;8.410;2023-06-22T10:35:33;3.33;;;2.60;;
32788;SDS011;19141;48.980;8.410;2023-06-22T10:37:59;5.65;;;3.00;;
32788;SDS011;19141;48.980;8.410;2023-06-22T10:40:25;4.32;;;3.17;;
32788;SDS011;19141;48.980;8.410;2023-06-22T10:42:50;4.40;;;3.05;;
32788;SDS011;19141;48.980;8.410;2023-06-22T10:45:15;5.15;;;2.42;;
32788;SDS011;19141;48.980;8.410;2023-06-22T10:47:41;4.07;;;2.80;;
32788;SDS011;19141;48.980;8.410;2023-06-22T10:50:10;3.75;;;3.00;;
32788;SDS011;19141;48.980;8.410;2023-06-22T10:52:35;4.25;;;2.90;;
32788;SDS011;19141;48.980;8.410;2023-06-22T10:55:01;4.57;;;2.78;;
32788;SDS011;19141;48.980;8.410;2023-06-22T10:57:26;7.13;;;2.85;;
32788;SDS011;19141;48.980;8.410;2023-06-22T10:59:52;3.90;;;3.03;;
32788;SDS011;19141;48.980;8.410;2023-06-22T11:02:17;3.90;;;2.90;;
32788;SDS011;19141;48.980;8.410;2023-06-22T11:04:43;3.80;;;3.00;;
32788;SDS011;19141;48.980;8.410;2023-06-22T11:07:08;6.22;;;3.10;;
32788;SDS011;19141;48.980;8.410;2023-06-22T11:09:34;3.60;;;2.80;;
32788;SDS011;19141;48.980;8.410;2023-06-22T11:12:00;7.35;;;3.03;;
32788;SDS011;19141;48.980;8.410;2023-06-22T11:14:25;4.30;;;2.58;;
32788;SDS011;19141;48.980;8.410;2023-06-22T11:16:51;4.22;;;2.60;;
32788;SDS011;19141;48.980;8.410;2023-06-22T11:19:16;3.27;;;2.60;;
32788;SDS011;19141;48.980;8.410;2023-06-22T11:21:42;4.60;;;3.15;;
32788;SDS011;19141;48.980;8.410;2023-06-22T11:24:07;3.92;;;2.90;;
32788;SDS011;19141;48.980;8.410;2023-06-22T11:26:33;4.32;;;2.80;;
32788;SDS011;19141;48.980;8.410;2023-06-22T11:28:59;6.72;;;3.10;;
32788;SDS011;19141;48.980;8.410;2023-06-22T11:31:24;5.90;;;3.33;;
32788;SDS011;19141;48.980;8.410;2023-06-22T11:33:50;4.00;;;2.93;;
32788;SDS011;19141;48.980;8.410;2023-06-22T11:36:15;3.40;;;2.72;;
32788;SDS011;19141;48.980;8.410;2023-06-22T11:38:42;3.13;;;2.57;;
32788;SDS011;19141;48.980;8.410;2023-06-22T11:41:08;5.77;;;3.13;;
32788;SDS011;19141;48.980;8.410;2023-06-22T11:43:34;5.50;;;2.75;;
32788;SDS011;19141;48.980;8.410;2023-06-22T11:46:01;4.38;;;2.88;;
32788;SDS011;19141;48.980;8.410;2023-06-22T11:48:28;4.60;;;3.15;;
32788;SDS011;19141;48.980;8.410;2023-06-22T11:50:53;6.05;;;3.00;;
32788;SDS011;19141;48.980;8.410;2023-06-22T11:53:20;4.38;;;2.63;;
32788;SDS011;19141;48.980;8.410;2023-06-22T11:58:12;4.60;;;3.10;;
32788;SDS011;19141;48.980;8.410;2023-06-22T12:00:37;5.07;;;2.83;;
32788;SDS011;19141;48.980;8.410;2023-06-22T12:03:03;5.90;;;4.10;;
32788;SDS011;19141;48.980;8.410;2023-06-22T12:05:29;6.63;;;3.20;;
32788;SDS011;19141;48.980;8.410;2023-06-22T12:07:54;5.30;;;3.20;;
32788;SDS011;19141;48.980;8.410;2023-06-22T12:10:20;6.00;;;3.10;;
32788;SDS011;19141;48.980;8.410;2023-06-22T12:12:46;4.40;;;2.75;;
32788;SDS011;19141;48.980;8.410;2023-06-22T12:15:12;5.73;;;2.83;;
32788;SDS011;19141;48.980;8.410;2023-06-22T12:17:37;4.77;;;3.10;;
32788;SDS011;19141;48.980;8.410;2023-06-22T12:20:03;4.97;;;2.90;;
32788;SDS011;19141;48.980;8.410;2023-06-22T12:22:34;3.75;;;3.03;;
32788;SDS011;19141;48.980;8.410;2023-06-22T12:25:00;7.57;;;3.50;;
32788;SDS011;19141;48.980;8.410;2023-06-22T12:27:26;3.95;;;3.03;;
32788;SDS011;19141;48.980;8.410;2023-06-22T12:29:52;3.43;;;2.93;;
32788;SDS011;19141;48.980;8.410;2023-06-22T12:32:17;4.43;;;3.40;;
32788;SDS011;19141;48.980;8.410;2023-06-22T12:34:43;7.30;;;3.03;;
32788;SDS011;19141;48.980;8.410;2023-06-22T12:37:10;6.72;;;3.00;;
32788;SDS011;19141;48.980;8.410;2023-06-22T12:39:35;4.22;;;3.05;;
32788;SDS011;19141;48.980;8.410;2023-06-22T12:42:01;4.40;;;2.87;;
32788;SDS011;19141;48.980;8.410;2023-06-22T12:44:27;4.20;;;3.07;;
32788;SDS011;19141;48.980;8.410;2023-06-22T12:46:52;7.33;;;3.03;;
32788;SDS011;19141;48.980;8.410;2023-06-22T12:49:18;3.97;;;3.10;;
32788;SDS011;19141;48.980;8.410;2023-06-22T12:51:43;4.37;;;2.90;;
32788;SDS011;19141;48.980;8.410;2023-06-22T12:54:09;5.57;;;3.23;;
32788;SDS011;19141;48.980;8.410;2023-06-22T12:56:35;4.20;;;3.55;;
32788;SDS011;19141;48.980;8.410;2023-06-22T12:59:02;6.10;;;3.05;;
32788;SDS011;19141;48.980;8.410;2023-06-22T13:03:55;4.10;;;2.85;;
32788;SDS011;19141;48.980;8.410;2023-06-22T13:06:21;4.80;;;3.78;;
32788;SDS011;19141;48.980;8.410;2023-06-22T13:08:46;5.40;;;3.47;;
32788;SDS011;19141;48.980;8.410;2023-06-22T13:11:12;5.97;;;3.20;;
32788;SDS011;19141;48.980;8.410;2023-06-22T13:13:38;5.53;;;3.70;;
32788;SDS011;19141;48.980;8.410;2023-06-22T13:16:03;4.90;;;3.30;;
32788;SDS011;19141;48.980;8.410;2023-06-22T13:18:29;6.67;;;3.33;;
32788;SDS011;19141;48.980;8.410;2023-06-22T13:20:54;4.93;;;3.65;;
32788;SDS011;19141;48.980;8.410;2023-06-22T13:23:20;4.30;;;3.07;;
32788;SDS011;19141;48.980;8.410;2023-06-22T13:25:46;6.43;;;3.40;;
32788;SDS011;19141;48.980;8.410;2023-06-22T13:28:12;5.77;;;3.27;;
32788;SDS011;19141;48.980;8.410;2023-06-22T13:30:39;5.40;;;3.80;;
32788;SDS011;19141;48.980;8.410;2023-06-22T13:33:05;5.45;;;3.05;;
32788;SDS011;19141;48.980;8.410;2023-06-22T13:35:30;7.00;;;3.10;;
32788;SDS011;19141;48.980;8.410;2023-06-22T13:37:56;5.23;;;3.33;;
32788;SDS011;19141;48.980;8.410;2023-06-22T13:40:21;4.20;;;2.83;;
32788;SDS011;19141;48.980;8.410;2023-06-22T13:42:46;3.67;;;3.17;;
32788;SDS011;19141;48.980;8.410;2023-06-22T13:45:12;5.50;;;3.03;;
32788;SDS011;19141;48.980;8.410;2023-06-22T13:47:37;3.87;;;2.93;;
32788;SDS011;19141;48.980;8.410;2023-06-22T13:50:03;5.53;;;3.60;;
32788;SDS011;19141;48.980;8.410;2023-06-22T13:52:28;5.53;;;3.17;;
32788;SDS011;19141;48.980;8.410;2023-06-22T13:54:54;4.07;;;3.07;;
32788;SDS011;19141;48.980;8.410;2023-06-22T13:57:19;4.87;;;3.50;;
32788;SDS011;19141;48.980;8.410;2023-06-22T13:59:45;5.03;;;3.00;;
32788;SDS011;19141;48.980;8.410;2023-06-22T14:02:10;5.93;;;3.47;;
32788;SDS011;19141;48.980;8.410;2023-06-22T14:04:36;7.10;;;3.10;;
32788;SDS011;19141;48.980;8.410;2023-06-22T14:07:01;5.20;;;3.20;;
32788;SDS011;19141;48.980;8.410;2023-06-22T14:09:27;4.77;;;3.43;;
32788;SDS011;19141;48.980;8.410;2023-06-22T14:11:53;7.40;;;3.80;;
32788;SDS011;19141;48.980;8.410;2023-06-22T14:14:20;6.35;;;3.35;;
32788;SDS011;19141;48.980;8.410;2023-06-22T14:16:45;7.50;;;3.75;;
32788;SDS011;19141;48.980;8.410;2023-06-22T14:19:11;5.35;;;3.13;;
32788;SDS011;19141;48.980;8.410;2023-06-22T14:21:36;5.95;;;3.63;;
32788;SDS011;19141;48.980;8.410;2023-06-22T14:24:01;7.65;;;3.83;;
32788;SDS011;19141;48.980;8.410;2023-06-22T14:26:27;6.97;;;3.70;;
32788;SDS011;19141;48.980;8.410;2023-06-22T14:28:52;6.30;;;3.50;;
32788;SDS011;19141;48.980;8.410;2023-06-22T14:31:18;6.65;;;3.55;;
32788;SDS011;19141;48.980;8.410;2023-06-22T14:33:48;5.35;;;3.50;;
32788;SDS011;19141;48.980;8.410;2023-06-22T14:36:15;9.73;;;4.22;;
32788;SDS011;19141;48.980;8.410;2023-06-22T14:38:41;5.20;;;3.38;;
32788;SDS011;19141;48.980;8.410;2023-06-22T14:41:06;4.65;;;3.42;;
32788;SDS011;19141;48.980;8.410;2023-06-22T14:43:32;4.18;;;3.17;;
32788;SDS011;19141;48.980;8.410;2023-06-22T14:45:57;4.80;;;3.47;;
32788;SDS011;19141;48.980;8.410;2023-06-22T14:48:22;5.35;;;3.78;;
32788;SDS011;19141;48.980;8.410;2023-06-22T14:50:48;5.32;;;3.60;;
32788;SDS011;19141;48.980;8.410;2023-06-22T14:53:13;6.80;;;4.68;;
32788;SDS011;19141;48.980;8.410;2023-06-22T14:55:39;5.80;;;3.55;;
32788;SDS011;19141;48.980;8.410;2023-06-22T14:58:05;4.90;;;3.72;;
32788;SDS011;19141;48.980;8.410;2023-06-22T15:00:30;5.70;;;3.78;;
32788;SDS011;19141;48.980;8.410;2023-06-22T15:02:56;3.08;;;2.78;;
32788;SDS011;19141;48.980;8.410;2023-06-22T15:05:22;4.47;;;3.17;;
32788;SDS011;19141;48.980;8.410;2023-06-22T15:07:49;6.47;;;3.45;;
32788;SDS011;19141;48.980;8.410;2023-06-22T15:10:14;3.78;;;2.97;;
32788;SDS011;19141;48.980;8.410;2023-06-22T15:12:40;8.93;;;3.47;;
32788;SDS011;19141;48.980;8.410;2023-06-22T15:15:05;5.95;;;3.50;;
32788;SDS011;19141;48.980;8.410;2023-06-22T15:17:31;4.65;;;3.13;;
32788;SDS011;19141;48.980;8.410;2023-06-22T15:19:57;4.57;;;3.00;;
32788;SDS011;19141;48.980;8.410;2023-06-22T15:22:23;5.60;;;2.97;;
32788;SDS011;19141;48.980;8.410;2023-06-22T15:24:49;5.30;;;3.00;;
32788;SDS011;19141;48.980;8.410;2023-06-22T15:27:14;5.65;;;3.38;;
32788;SDS011;19141;48.980;8.410;2023-06-22T15:29:40;4.87;;;3.27;;
32788;SDS011;19141;48.980;8.410;2023-06-22T15:32:08;6.20;;;3.78;;
32788;SDS011;19141;48.980;8.410;2023-06-22T15:34:33;5.65;;;3.20;;
32788;SDS011;19141;48.980;8.410;2023-06-22T15:36:59;4.97;;;3.38;;
32788;SDS011;19141;48.980;8.410;2023-06-22T15:39:25;4.40;;;3.30;;
32788;SDS011;19141;48.980;8.410;2023-06-22T15:41:54;3.85;;;2.97;;
32788;SDS011;19141;48.980;8.410;2023-06-22T15:44:21;6.70;;;3.78;;
32788;SDS011;19141;48.980;8.410;2023-06-22T15:46:47;16.08;;;10.25;;
32788;SDS011;19141;48.980;8.410;2023-06-22T15:51:39;8.97;;;5.30;;
32788;SDS011;19141;48.980;8.410;2023-06-22T15:54:04;5.85;;;3.78;;
32788;SDS011;19141;48.980;8.410;2023-06-22T15:56:30;5.80;;;3.95;;
32788;SDS011;19141;48.980;8.410;2023-06-22T15:58:55;6.40;;;3.83;;
32788;SDS011;19141;48.980;8.410;2023-06-22T16:01:22;6.03;;;3.30;;
32788;SDS011;19141;48.980;8.410;2023-06-22T16:03:51;6.43;;;3.43;;
32788;SDS011;19141;48.980;8.410;2023-06-22T16:06:16;6.32;;;3.75;;
32788;SDS011;19141;48.980;8.410;2023-06-22T16:08:41;8.18;;;3.20;;
32788;SDS011;19141;48.980;8.410;2023-06-22T16:11:07;5.03;;;2.83;;
32788;SDS011;19141;48.980;8.410;2023-06-22T16:13:33;5.95;;;3.13;;
32788;SDS011;19141;48.980;8.410;2023-06-22T16:15:58;4.82;;;3.42;;
32788;SDS011;19141;48.980;8.410;2023-06-22T16:18:24;6.35;;;3.30;;
32788;SDS011;19141;48.980;8.410;2023-06-22T16:20:49;6.50;;;2.78;;
32788;SDS011;19141;48.980;8.410;2023-06-22T16:23:14;6.30;;;3.53;;
32788;SDS011;19141;48.980;8.410;2023-06-22T16:25:40;10.07;;;6.78;;
32788;SDS011;19141;48.980;8.410;2023-06-22T16:28:05;6.43;;;3.33;;
32788;SDS011;19141;48.980;8.410;2023-06-22T16:30:31;4.68;;;3.38;;
32788;SDS011;19141;48.980;8.410;2023-06-22T16:32:56;7.63;;;3.50;;
32788;SDS011;19141;48.980;8.410;2023-06-22T16:35:26;7.97;;;4.10;;
32788;SDS011;19141;48.980;8.410;2023-06-22T16:37:53;10.57;;;5.60;;
32788;SDS011;19141;48.980;8.410;2023-06-22T16:40:19;5.95;;;4.40;;
32788;SDS011;19141;48.980;8.410;2023-06-22T16:42:45;6.43;;;4.63;;
32788;SDS011;19141;48.980;8.410;2023-06-22T16:45:14;7.15;;;3.95;;
32788;SDS011;19141;48.980;8.410;2023-06-22T16:47:40;4.32;;;3.08;;
32788;SDS011;19141;48.980;8.410;2023-06-22T16:50:10;5.80;;;3.30;;
32788;SDS011;19141;48.980;8.410;2023-06-22T16:52:36;6.40;;;3.00;;
32788;SDS011;19141;48.980;8.410;2023-06-22T16:55:03;4.90;;;2.88;;
32788;SDS011;19141;48.980;8.410;2023-06-22T16:57:30;3.78;;;2.65;;
32788;SDS011;19141;48.980;8.410;2023-06-22T16:59:55;4.75;;;3.03;;
32788;SDS011;19141;48.980;8.410;2023-06-22T17:02:22;6.13;;;2.75;;
32788;SDS011;19141;48.980;8.410;2023-06-22T17:04:51;5.07;;;2.70;;
32788;SDS011;19141;48.980;8.410;2023-06-22T17:07:21;3.33;;;2.42;;
32788;SDS011;19141;48.980;8.410;2023-06-22T17:09:48;7.13;;;2.70;;
32788;SDS011;19141;48.980;8.410;2023-06-22T17:12:15;6.38;;;2.70;;
32788;SDS011;19141;48.980;8.410;2023-06-22T17:14:43;5.43;;;2.80;;
32788;SDS011;19141;48.980;8.410;2023-06-22T17:17:10;5.57;;;2.60;;
32788;SDS011;19141;48.980;8.410;2023-06-22T17:19:38;4.93;;;3.13;;
32788;SDS011;19141;48.980;8.410;2023-06-22T17:22:03;4.97;;;2.60;;
32788;SDS011;19141;48.980;8.410;2023-06-22T17:24:29;7.28;;;2.50;;
32788;SDS011;19141;48.980;8.410;2023-06-22T17:26:55;6.63;;;3.88;;
32788;SDS011;19141;48.980;8.410;2023-06-22T17:29:20;4.35;;;3.20;;
32788;SDS011;19141;48.980;8.410;2023-06-22T17:31:46;4.25;;;2.80;;
32788;SDS011;19141;48.980;8.410;2023-06-22T17:34:13;4.47;;;2.80;;
32788;SDS011;19141;48.980;8.410;2023-06-22T17:36:44;3.40;;;2.20;;
32788;SDS011;19141;48.980;8.410;2023-06-22T17:39:10;4.90;;;2.27;;
32788;SDS011;19141;48.980;8.410;2023-06-22T17:41:37;5.65;;;3.03;;
32788;SDS011;19141;48.980;8.410;2023-06-22T17:44:04;4.03;;;1.90;;
32788;SDS011;19141;48.980;8.410;2023-06-22T17:46:33;4.72;;;2.38;;
32788;SDS011;19141;48.980;8.410;2023-06-22T17:49:00;2.85;;;1.75;;
32788;SDS011;19141;48.980;8.410;2023-06-22T17:51:25;2.88;;;1.75;;
32788;SDS011;19141;48.980;8.410;2023-06-22T17:53:51;2.78;;;1.58;;
32788;SDS011;19141;48.980;8.410;2023-06-22T17:56:17;2.95;;;1.80;;
32788;SDS011;19141;48.980;8.410;2023-06-22T17:58:50;2.30;;;1.55;;
32788;SDS011;19141;48.980;8.410;2023-06-22T18:01:28;3.78;;;1.80;;
32788;SDS011;19141;48.980;8.410;2023-06-22T18:03:55;2.50;;;1.60;;
32788;SDS011;19141;48.980;8.410;2023-06-22T18:06:21;3.22;;;1.50;;
32788;SDS011;19141;48.980;8.410;2023-06-22T18:08:50;2.67;;;1.95;;
32788;SDS011;19141;48.980;8.410;2023-06-22T18:11:21;2.85;;;1.35;;
32788;SDS011;19141;48.980;8.410;2023-06-22T18:13:51;3.85;;;1.60;;
32788;SDS011;19141;48.980;8.410;2023-06-22T18:16:19;4.10;;;1.90;;
32788;SDS011;19141;48.980;8.410;2023-06-22T18:18:46;5.30;;;3.05;;
32788;SDS011;19141;48.980;8.410;2023-06-22T18:21:13;3.10;;;1.63;;
32788;SDS011;19141;48.980;8.410;2023-06-22T18:23:41;2.40;;;1.50;;
32788;SDS011;19141;48.980;8.410;2023-06-22T18:26:08;3.47;;;1.90;;
32788;SDS011;19141;48.980;8.410;2023-06-22T18:28:35;3.05;;;1.80;;
32788;SDS011;19141;48.980;8.410;2023-06-22T18:31:00;3.35;;;1.80;;
32788;SDS011;19141;48.980;8.410;2023-06-22T18:33:27;3.70;;;1.67;;
32788;SDS011;19141;48.980;8.410;2023-06-22T18:35:53;5.28;;;2.20;;
32788;SDS011;19141;48.980;8.410;2023-06-22T18:38:19;4.35;;;1.85;;
32788;SDS011;19141;48.980;8.410;2023-06-22T18:40:49;5.57;;;2.30;;
32788;SDS011;19141;48.980;8.410;2023-06-22T18:43:22;6.43;;;2.20;;
32788;SDS011;19141;48.980;8.410;2023-06-22T18:45:48;3.40;;;2.03;;
32788;SDS011;19141;48.980;8.410;2023-06-22T18:48:14;6.40;;;2.95;;
32788;SDS011;19141;48.980;8.410;2023-06-22T18:50:49;4.05;;;2.00;;
32788;SDS011;19141;48.980;8.410;2023-06-22T18:55:49;3.78;;;1.77;;
32788;SDS011;19141;48.980;8.410;2023-06-22T18:58:16;2.97;;;2.03;;
32788;SDS011;19141;48.980;8.410;2023-06-22T19:00:49;3.30;;;1.85;;
32788;SDS011;19141;48.980;8.410;2023-06-22T19:03:22;4.05;;;2.35;;
32788;SDS011;19141;48.980;8.410;2023-06-22T19:05:55;2.78;;;1.98;;
32788;SDS011;19141;48.980;8.410;2023-06-22T19:08:20;2.97;;;1.83;;
32788;SDS011;19141;48.980;8.410;2023-06-22T19:10:47;3.40;;;1.95;;
32788;SDS011;19141;48.980;8.410;2023-06-22T19:13:16;4.00;;;2.08;;
32788;SDS011;19141;48.980;8.410;2023-06-22T19:15:44;2.80;;;1.80;;